createdAt,value
2022-12-12T00:00:30.566Z,98312.63
2022-12-12T00:01:35.904Z,98303.59
2022-12-12T00:02:39.004Z,98310.18
2022-12-12T00:03:41.535Z,98304.95
2022-12-12T00:04:43.673Z,98299.31
2022-12-12T00:05:45.833Z,98309.84
2022-12-12T00:06:47.926Z,98311.44
2022-12-12T00:07:50.141Z,98303.45
2022-12-12T00:08:53.117Z,98306.97
2022-12-12T00:09:55.042Z,98311.05
2022-12-12T00:10:57.441Z,98309.95
2022-12-12T00:11:59.493Z,98302.75
2022-12-12T00:13:02.200Z,98300.45
2022-12-12T00:14:04.318Z,98302.69
2022-12-12T00:15:07.508Z,98318.64
2022-12-12T00:16:11.053Z,98309.28
2022-12-12T00:17:13.615Z,98319.95
2022-12-12T00:18:15.644Z,98313.59
2022-12-12T00:19:17.806Z,98312.49
2022-12-12T00:20:20.029Z,98313.44
2022-12-12T00:21:26.170Z,98323.41
2022-12-12T00:22:30.150Z,98330.39
2022-12-12T00:23:32.926Z,98321.57
2022-12-12T00:24:35.319Z,98333.70
2022-12-12T00:25:37.302Z,98319.95
2022-12-12T00:26:39.659Z,98327.85
2022-12-12T00:27:42.297Z,98328.69
2022-12-12T00:28:44.518Z,98331.39
2022-12-12T00:29:54.832Z,98336.98
2022-12-12T00:30:57.332Z,98336.69
2022-12-12T00:31:59.502Z,98329.55
2022-12-12T00:33:01.559Z,98336.17
2022-12-12T00:34:03.741Z,98344.69
2022-12-12T00:35:06.835Z,98338.00
2022-12-12T00:36:09.936Z,98340.37
2022-12-12T00:37:11.932Z,98326.03
2022-12-12T00:38:14.025Z,98350.20
2022-12-12T00:39:18.410Z,98352.13
2022-12-12T00:40:19.792Z,98350.50
2022-12-12T00:41:22.932Z,98348.05
2022-12-12T00:42:24.958Z,98343.59
2022-12-12T00:43:27.381Z,98346.44
2022-12-12T00:44:29.359Z,98347.66
2022-12-12T00:45:31.255Z,98338.14
2022-12-12T00:46:33.302Z,98344.73
2022-12-12T00:47:35.317Z,98343.28
2022-12-12T00:48:37.203Z,98338.30
2022-12-12T00:49:39.074Z,98340.91
2022-12-12T00:50:42.189Z,98344.00
2022-12-12T00:51:45.161Z,98351.98
2022-12-12T00:52:48.057Z,98350.28
2022-12-12T00:53:50.867Z,98355.50
2022-12-12T00:54:52.748Z,98344.15
2022-12-12T00:55:57.166Z,98349.22
2022-12-12T00:56:59.444Z,98344.46
2022-12-12T00:58:01.338Z,98338.30
2022-12-12T00:59:03.947Z,98350.05
2022-12-12T01:00:08.978Z,98349.30
2022-12-12T01:01:20.124Z,98346.84
2022-12-12T01:02:27.861Z,98347.98
2022-12-12T01:03:26.154Z,98340.15
2022-12-12T01:04:28.146Z,98340.91
2022-12-12T01:05:30.139Z,98333.87
2022-12-12T01:06:32.546Z,98337.84
2022-12-12T01:07:34.478Z,98338.22
2022-12-12T01:08:37.722Z,98328.83
2022-12-12T01:09:40.926Z,98337.13
2022-12-12T01:10:42.932Z,98330.31
2022-12-12T01:11:45.035Z,98324.17
2022-12-12T01:12:47.119Z,98322.78
2022-12-12T01:13:51.233Z,98324.02
2022-12-12T01:14:53.248Z,98323.71
2022-12-12T01:15:56.562Z,98319.87
2022-12-12T01:17:00.240Z,98317.18
2022-12-12T01:18:02.318Z,98325.27
2022-12-12T01:19:04.235Z,98319.09
2022-12-12T01:20:10.409Z,98310.52
2022-12-12T01:21:15.422Z,98311.58
2022-12-12T01:22:17.495Z,98313.59
2022-12-12T01:23:21.013Z,98311.66
2022-12-12T01:24:23.593Z,98312.75
2022-12-12T01:25:25.682Z,98316.50
2022-12-12T01:26:28.301Z,98326.25
2022-12-12T01:27:30.210Z,98332.59
2022-12-12T01:28:34.712Z,98332.59
2022-12-12T01:29:36.654Z,98341.91
2022-12-12T01:30:38.951Z,98339.81
2022-12-12T01:31:40.886Z,98342.27
2022-12-12T01:32:42.989Z,98340.25
2022-12-12T01:33:45.365Z,98344.89
2022-12-12T01:34:47.245Z,98351.70
2022-12-12T01:35:49.118Z,98355.69
2022-12-12T01:36:51.746Z,98347.13
2022-12-12T01:37:53.965Z,98354.37
2022-12-12T01:38:55.875Z,98354.92
2022-12-12T01:39:57.884Z,98353.95
2022-12-12T01:41:00.273Z,98360.00
2022-12-12T01:42:02.507Z,98370.00
2022-12-12T01:43:13.476Z,98373.97
2022-12-12T01:44:42.371Z,98367.93
2022-12-12T01:45:59.817Z,98364.69
2022-12-12T01:47:01.886Z,98357.75
2022-12-12T01:48:05.613Z,98360.98
2022-12-12T01:49:17.320Z,98364.67
2022-12-12T01:50:19.579Z,98363.11
2022-12-12T01:51:24.473Z,98366.48
2022-12-12T01:52:29.897Z,98372.31
2022-12-12T01:53:33.133Z,98371.02
2022-12-12T01:54:41.627Z,98368.94
2022-12-12T01:55:46.289Z,98366.89
2022-12-12T01:56:49.526Z,98365.25
2022-12-12T01:57:54.063Z,98364.42
2022-12-12T01:58:59.051Z,98358.02
2022-12-12T02:00:04.386Z,98351.17
2022-12-12T02:01:07.789Z,98356.10
2022-12-12T02:02:10.001Z,98361.60
2022-12-12T02:03:12.366Z,98361.53
2022-12-12T02:04:16.651Z,98366.95
2022-12-12T02:05:34.501Z,98364.48
2022-12-12T02:06:38.384Z,98371.41
2022-12-12T02:07:40.573Z,98360.13
2022-12-12T02:08:44.574Z,98357.52
2022-12-12T02:09:49.318Z,98360.97
2022-12-12T02:10:51.699Z,98358.50
2022-12-12T02:11:56.972Z,98343.48
2022-12-12T02:13:02.664Z,98342.66
2022-12-12T02:14:05.834Z,98341.72
2022-12-12T02:15:09.042Z,98342.10
2022-12-12T02:16:20.982Z,98336.23
2022-12-12T02:17:39.111Z,98325.45
2022-12-12T02:19:07.295Z,98332.58
2022-12-12T02:20:32.260Z,98343.08
2022-12-12T02:22:05.476Z,98338.34
2022-12-12T02:23:31.519Z,98346.93
2022-12-12T02:25:05.768Z,98355.69
2022-12-12T02:26:34.153Z,98362.78
2022-12-12T02:27:55.209Z,98354.27
2022-12-12T02:29:30.003Z,98351.31
2022-12-12T02:30:55.519Z,98366.81
2022-12-12T02:32:10.319Z,98367.45
2022-12-12T02:33:36.156Z,98366.47
2022-12-12T02:34:50.487Z,98355.83
2022-12-12T02:36:16.431Z,98334.17
2022-12-12T02:37:28.082Z,98328.20
2022-12-12T02:39:02.715Z,98315.92
2022-12-12T02:40:11.731Z,98314.95
2022-12-12T02:41:17.396Z,98319.33
2022-12-12T02:42:29.316Z,98311.50
2022-12-12T02:43:43.587Z,98304.11
2022-12-12T02:45:01.532Z,98298.54
2022-12-12T02:46:08.071Z,98291.77
2022-12-12T02:48:46.385Z,98274.86
2022-12-12T02:49:55.359Z,98283.30
2022-12-12T02:51:01.146Z,98284.78
2022-12-12T02:52:04.028Z,98292.67
2022-12-12T02:53:06.517Z,98294.92
2022-12-12T02:54:15.341Z,98303.83
2022-12-12T02:55:18.346Z,98312.41
2022-12-12T03:02:39.067Z,98335.10
2022-12-12T03:03:53.298Z,98349.46
2022-12-12T03:05:11.775Z,98362.02
2022-12-12T03:07:29.706Z,98367.34
2022-12-12T03:08:38.440Z,98375.39
2022-12-12T03:09:56.414Z,98373.16
2022-12-12T03:11:02.340Z,98371.05
2022-12-12T03:12:08.150Z,98368.91
2022-12-12T03:13:18.055Z,98367.94
2022-12-12T03:14:32.977Z,98362.42
2022-12-12T03:15:38.745Z,98362.22
2022-12-12T03:16:50.178Z,98370.47
2022-12-12T03:18:01.994Z,98369.84
2022-12-12T03:19:22.893Z,98366.26
2022-12-12T03:20:34.526Z,98360.70
2022-12-12T03:21:41.267Z,98353.50
2022-12-12T03:22:46.967Z,98346.52
2022-12-12T03:23:52.734Z,98345.96
2022-12-12T03:25:01.431Z,98345.96
2022-12-12T03:26:10.587Z,98340.61
2022-12-12T03:27:40.720Z,98355.63
2022-12-12T03:28:49.151Z,98371.33
2022-12-12T03:31:20.467Z,98380.97
2022-12-12T03:32:29.241Z,98383.36
2022-12-12T03:33:43.820Z,98388.44
2022-12-12T03:34:49.514Z,98392.12
2022-12-12T03:35:58.112Z,98387.53
2022-12-12T03:37:06.837Z,98382.88
2022-12-12T03:38:15.532Z,98380.89
2022-12-12T03:39:40.566Z,98381.97
2022-12-12T03:41:01.999Z,98377.80
2022-12-12T03:42:17.572Z,98396.44
2022-12-12T03:43:23.144Z,98402.85
2022-12-12T03:44:41.120Z,98394.97
2022-12-12T03:45:48.250Z,98402.45
2022-12-12T03:47:00.613Z,98403.02
2022-12-12T03:48:15.329Z,98407.27
2022-12-12T03:49:27.096Z,98416.13
2022-12-12T03:50:32.948Z,98419.62
2022-12-12T03:51:41.618Z,98411.24
2022-12-12T03:52:53.360Z,98401.52
2022-12-12T03:54:08.268Z,98409.87
2022-12-12T03:55:14.445Z,98404.69
2022-12-12T03:56:30.131Z,98408.50
2022-12-12T03:57:35.825Z,98404.80
2022-12-12T03:58:44.433Z,98409.20
2022-12-12T03:59:50.208Z,98414.28
2022-12-12T04:00:55.673Z,98422.37
2022-12-12T04:02:01.591Z,98422.93
2022-12-12T04:03:13.221Z,98432.61
2022-12-12T04:04:31.154Z,98428.59
2022-12-12T04:06:10.644Z,98436.48
2022-12-12T04:07:19.545Z,98443.13
2022-12-12T04:08:21.753Z,98452.69
2022-12-12T04:09:23.786Z,98450.14
2022-12-12T04:10:29.728Z,98453.78
2022-12-12T04:11:35.415Z,98444.82
2022-12-12T04:12:44.287Z,98448.53
2022-12-12T04:15:15.351Z,98438.19
2022-12-12T04:16:24.276Z,98427.95
2022-12-12T04:17:41.782Z,98429.92
2022-12-12T04:18:50.586Z,98425.09
2022-12-12T04:19:56.312Z,98425.92
2022-12-12T04:21:08.252Z,98417.98
2022-12-12T04:22:18.439Z,98403.52
2022-12-12T04:23:44.192Z,98396.89
2022-12-12T04:24:49.953Z,98398.97
2022-12-12T04:26:11.049Z,98397.97
2022-12-12T04:27:25.840Z,98396.45
2022-12-12T04:28:31.668Z,98404.84
2022-12-12T04:29:52.248Z,98411.94
2022-12-12T04:30:56.759Z,98415.37
2022-12-12T04:32:02.566Z,98407.31
2022-12-12T04:34:22.304Z,98403.29
2022-12-12T04:35:37.004Z,98410.56
2022-12-12T04:36:42.517Z,98425.11
2022-12-12T04:37:54.099Z,98430.09
2022-12-12T04:38:57.123Z,98425.66
2022-12-12T04:40:02.116Z,98426.98
2022-12-12T04:41:07.692Z,98417.47
2022-12-12T04:42:13.389Z,98425.73
2022-12-12T04:43:19.012Z,98426.45
2022-12-12T04:44:27.654Z,98428.14
2022-12-12T04:45:33.446Z,98430.53
2022-12-12T04:46:38.391Z,98411.35
2022-12-12T04:47:44.067Z,98417.91
2022-12-12T04:48:53.019Z,98420.70
2022-12-12T04:49:55.503Z,98430.62
2022-12-12T04:50:59.971Z,98431.52
2022-12-12T04:52:08.338Z,98434.66
2022-12-12T04:53:18.536Z,98432.58
2022-12-12T04:54:23.889Z,98430.56
2022-12-12T04:55:33.074Z,98426.32
2022-12-12T04:56:37.597Z,98410.91
2022-12-12T04:57:43.265Z,98410.50
2022-12-12T04:58:46.353Z,98401.91
2022-12-12T04:59:49.219Z,98418.31
2022-12-12T05:00:54.904Z,98422.36
2022-12-12T05:02:01.180Z,98426.13
2022-12-12T05:03:37.417Z,98428.34
2022-12-12T05:04:43.209Z,98430.88
2022-12-12T05:05:48.904Z,98428.41
2022-12-12T05:06:54.769Z,98428.85
2022-12-12T05:08:13.087Z,98432.33
2022-12-12T05:09:17.008Z,98422.81
2022-12-12T05:10:19.262Z,98425.91
2022-12-12T05:11:22.389Z,98419.53
2022-12-12T05:12:24.438Z,98430.87
2022-12-12T05:13:32.427Z,98440.20
2022-12-12T05:14:34.547Z,98447.14
2022-12-12T05:15:39.190Z,98446.46
2022-12-12T05:16:50.042Z,98440.39
2022-12-12T05:19:09.090Z,98440.78
2022-12-12T05:20:12.059Z,98448.53
2022-12-12T05:21:15.279Z,98447.73
2022-12-12T05:22:17.193Z,98453.66
2022-12-12T05:23:19.276Z,98451.58
2022-12-12T05:24:21.297Z,98449.56
2022-12-12T05:25:23.450Z,98450.93
2022-12-12T05:26:28.387Z,98459.20
2022-12-12T05:27:30.438Z,98463.05
2022-12-12T05:28:32.304Z,98467.52
2022-12-12T05:29:34.175Z,98460.94
2022-12-12T05:30:37.976Z,98460.59
2022-12-12T05:31:40.241Z,98458.09
2022-12-12T05:32:42.422Z,98454.37
2022-12-12T05:33:45.269Z,98452.95
2022-12-12T05:34:47.154Z,98469.11
2022-12-12T05:35:49.048Z,98469.89
2022-12-12T05:36:51.428Z,98478.33
2022-12-12T05:37:53.299Z,98481.29
2022-12-12T05:38:55.163Z,98488.38
2022-12-12T05:39:57.026Z,98488.05
2022-12-12T05:40:59.236Z,98504.48
2022-12-12T05:42:01.135Z,98497.56
2022-12-12T05:43:03.002Z,98494.78
2022-12-12T05:44:05.133Z,98497.87
2022-12-12T05:45:08.302Z,98499.21
2022-12-12T05:46:10.471Z,98496.33
2022-12-12T05:47:12.591Z,98507.31
2022-12-12T05:48:16.454Z,98506.84
2022-12-12T05:49:18.423Z,98498.85
2022-12-12T05:50:20.624Z,98500.40
2022-12-12T05:51:22.512Z,98500.45
2022-12-12T05:52:25.336Z,98489.64
2022-12-12T05:53:28.514Z,98488.20
2022-12-12T05:54:30.882Z,98482.61
2022-12-12T05:55:32.772Z,98494.23
2022-12-12T05:56:34.868Z,98504.70
2022-12-12T05:57:36.846Z,98511.07
2022-12-12T05:58:39.817Z,98510.69
2022-12-12T05:59:41.738Z,98500.83
2022-12-12T06:00:45.836Z,98490.48
2022-12-12T06:01:47.734Z,98496.23
2022-12-12T06:02:49.676Z,98490.86
2022-12-12T06:03:51.733Z,98505.60
2022-12-12T06:04:54.537Z,98506.35
2022-12-12T06:05:56.421Z,98522.66
2022-12-12T06:06:58.420Z,98524.74
2022-12-12T06:08:00.492Z,98522.31
2022-12-12T06:09:03.213Z,98534.28
2022-12-12T06:10:06.959Z,98530.12
2022-12-12T06:11:08.875Z,98523.03
2022-12-12T06:12:10.835Z,98524.63
2022-12-12T06:13:12.764Z,98529.83
2022-12-12T06:14:14.739Z,98525.77
2022-12-12T06:15:16.719Z,98532.39
2022-12-12T06:16:19.376Z,98535.95
2022-12-12T06:17:21.328Z,98536.53
2022-12-12T06:18:23.530Z,98536.75
2022-12-12T06:19:25.451Z,98532.11
2022-12-12T06:20:27.496Z,98536.70
2022-12-12T06:21:31.989Z,98537.09
2022-12-12T06:22:35.424Z,98537.09
2022-12-12T06:23:41.663Z,98542.29
2022-12-12T06:24:44.044Z,98546.85
2022-12-12T06:25:50.801Z,98546.82
2022-12-12T06:26:53.281Z,98542.97
2022-12-12T06:27:55.173Z,98542.78
2022-12-12T06:28:59.026Z,98550.09
2022-12-12T06:30:01.131Z,98553.92
2022-12-12T06:31:11.572Z,98549.88
2022-12-12T06:32:10.870Z,98549.51
2022-12-12T06:33:12.853Z,98546.45
2022-12-12T06:34:14.726Z,98539.97
2022-12-12T06:35:16.778Z,98558.02
2022-12-12T06:36:21.730Z,98548.55
2022-12-12T06:37:24.133Z,98554.25
2022-12-12T06:38:28.732Z,98545.28
2022-12-12T06:39:32.028Z,98545.23
2022-12-12T06:40:34.283Z,98543.69
2022-12-12T06:41:36.437Z,98554.70
2022-12-12T06:42:40.843Z,98550.88
2022-12-12T06:43:42.489Z,98560.36
2022-12-12T06:44:47.357Z,98558.19
2022-12-12T06:45:49.747Z,98561.49
2022-12-12T06:46:55.952Z,98558.83
2022-12-12T06:47:57.916Z,98557.96
2022-12-12T06:48:59.937Z,98560.56
2022-12-12T06:50:02.162Z,98566.26
2022-12-12T06:51:09.685Z,98560.28
2022-12-12T06:52:12.950Z,98558.23
2022-12-12T06:53:14.956Z,98557.75
2022-12-12T06:54:18.275Z,98553.26
2022-12-12T06:55:22.497Z,98560.17
2022-12-12T06:56:26.024Z,98564.50
2022-12-12T06:57:28.448Z,98564.22
2022-12-12T06:58:30.379Z,98563.22
2022-12-12T06:59:32.760Z,98567.94
2022-12-12T07:00:34.863Z,98570.31
2022-12-12T07:01:37.635Z,98558.63
2022-12-12T07:02:40.572Z,98580.83
2022-12-12T07:03:42.541Z,98576.41
2022-12-12T07:04:44.419Z,98584.75
2022-12-12T07:05:47.084Z,98583.09
2022-12-12T07:06:49.515Z,98583.27
2022-12-12T07:07:51.495Z,98587.91
2022-12-12T07:08:54.147Z,98589.13
2022-12-12T07:09:56.201Z,98598.37
2022-12-12T07:11:04.762Z,98596.23
2022-12-12T07:12:07.181Z,98590.22
2022-12-12T07:13:10.545Z,98588.43
2022-12-12T07:14:12.902Z,98588.29
2022-12-12T07:15:15.978Z,98588.54
2022-12-12T07:16:20.460Z,98592.16
2022-12-12T07:17:22.856Z,98593.51
2022-12-12T07:18:25.282Z,98588.86
2022-12-12T07:19:28.645Z,98594.06
2022-12-12T07:20:31.006Z,98585.76
2022-12-12T07:21:32.895Z,98597.09
2022-12-12T07:22:35.086Z,98590.85
2022-12-12T07:23:38.080Z,98587.19
2022-12-12T07:24:39.977Z,98586.82
2022-12-12T07:25:43.976Z,98586.53
2022-12-12T07:26:46.063Z,98591.45
2022-12-12T07:27:47.956Z,98587.14
2022-12-12T07:28:51.091Z,98582.86
2022-12-12T07:29:53.187Z,98580.92
2022-12-12T07:30:55.344Z,98585.70
2022-12-12T07:31:57.768Z,98584.31
2022-12-12T07:33:01.859Z,98589.56
2022-12-12T07:34:04.295Z,98588.80
2022-12-12T07:35:07.572Z,98583.23
2022-12-12T07:36:11.948Z,98586.70
2022-12-12T07:37:13.943Z,98596.56
2022-12-12T07:38:17.740Z,98598.82
2022-12-12T07:39:21.134Z,98597.81
2022-12-12T07:40:24.053Z,98606.74
2022-12-12T07:41:26.247Z,98607.07
2022-12-12T07:42:28.267Z,98617.14
2022-12-12T07:43:32.971Z,98625.50
2022-12-12T07:44:34.387Z,98625.61
2022-12-12T07:45:36.280Z,98625.19
2022-12-12T07:46:38.364Z,98630.44
2022-12-12T07:47:41.184Z,98628.28
2022-12-12T07:48:43.813Z,98634.98
2022-12-12T07:49:45.977Z,98644.55
2022-12-12T07:50:47.962Z,98640.96
2022-12-12T07:51:50.034Z,98640.58
2022-12-12T07:52:51.920Z,98642.31
2022-12-12T07:53:53.802Z,98639.72
2022-12-12T07:54:55.681Z,98648.25
2022-12-12T07:55:57.855Z,98649.96
2022-12-12T07:56:59.894Z,98658.77
2022-12-12T07:58:01.774Z,98654.63
2022-12-12T07:59:03.905Z,98656.30
2022-12-12T08:00:08.458Z,98662.07
2022-12-12T08:01:23.029Z,98652.47
2022-12-12T08:02:25.432Z,98651.42
2022-12-12T08:03:27.331Z,98648.66
2022-12-12T08:04:29.319Z,98654.79
2022-12-12T08:05:31.292Z,98656.92
2022-12-12T08:06:33.383Z,98661.56
2022-12-12T08:07:35.455Z,98660.06
2022-12-12T08:08:37.924Z,98655.95
2022-12-12T08:09:49.034Z,98656.77
2022-12-12T08:10:51.112Z,98655.48
2022-12-12T08:11:56.517Z,98661.27
2022-12-12T08:13:01.734Z,98645.76
2022-12-12T08:14:11.150Z,98653.05
2022-12-12T08:15:14.151Z,98653.45
2022-12-12T08:16:29.532Z,98651.42
2022-12-12T08:17:31.515Z,98654.08
2022-12-12T08:18:34.333Z,98654.23
2022-12-12T08:19:36.331Z,98663.80
2022-12-12T08:20:41.992Z,98661.20
2022-12-12T08:22:53.326Z,98656.92
2022-12-12T08:23:57.339Z,98655.86
2022-12-12T08:24:59.449Z,98659.98
2022-12-12T08:26:08.157Z,98659.24
2022-12-12T08:27:15.377Z,98655.23
2022-12-12T08:28:14.183Z,98653.48
2022-12-12T08:29:17.568Z,98647.43
2022-12-12T08:30:20.770Z,98654.20
2022-12-12T08:31:23.551Z,98648.27
2022-12-12T08:32:25.710Z,98645.00
2022-12-12T08:33:27.920Z,98651.54
2022-12-12T08:34:48.059Z,98656.41
2022-12-12T08:35:51.252Z,98646.05
2022-12-12T08:36:53.469Z,98653.13
2022-12-12T08:37:55.544Z,98645.83
2022-12-12T08:39:00.198Z,98650.33
2022-12-12T08:40:02.596Z,98647.92
2022-12-12T08:41:05.080Z,98657.84
2022-12-12T08:42:06.979Z,98656.08
2022-12-12T08:43:09.608Z,98652.66
2022-12-12T08:44:12.916Z,98661.95
2022-12-12T08:45:15.301Z,98663.61
2022-12-12T08:46:19.932Z,98661.45
2022-12-12T08:47:24.142Z,98654.97
2022-12-12T08:48:26.281Z,98654.37
2022-12-12T08:49:28.154Z,98654.56
2022-12-12T08:50:30.141Z,98659.08
2022-12-12T08:51:32.004Z,98654.97
2022-12-12T08:52:34.244Z,98667.83
2022-12-12T08:53:36.328Z,98665.56
2022-12-12T08:54:38.352Z,98675.53
2022-12-12T08:55:40.564Z,98669.60
2022-12-12T08:56:42.651Z,98670.34
2022-12-12T08:57:44.521Z,98670.45
2022-12-12T08:58:47.336Z,98674.08
2022-12-12T08:59:49.356Z,98667.16
2022-12-12T09:00:51.592Z,98665.11
2022-12-12T09:01:53.530Z,98667.98
2022-12-12T09:02:55.793Z,98678.36
2022-12-12T09:03:58.728Z,98676.09
2022-12-12T09:05:00.709Z,98676.34
2022-12-12T09:06:05.139Z,98690.08
2022-12-12T09:07:08.840Z,98691.61
2022-12-12T09:08:13.660Z,98687.38
2022-12-12T09:09:15.647Z,98682.43
2022-12-12T09:10:17.950Z,98682.23
2022-12-12T09:11:19.915Z,98677.23
2022-12-12T09:12:21.829Z,98660.05
2022-12-12T09:13:23.864Z,98666.84
2022-12-12T09:14:25.733Z,98671.25
2022-12-12T09:15:27.630Z,98675.44
2022-12-12T09:16:29.911Z,98677.30
2022-12-12T09:17:32.578Z,98686.59
2022-12-12T09:18:36.345Z,98686.59
2022-12-12T09:19:38.610Z,98693.41
2022-12-12T09:20:43.511Z,98685.60
2022-12-12T09:21:45.531Z,98685.08
2022-12-12T09:22:55.039Z,98678.80
2022-12-12T09:23:57.513Z,98685.91
2022-12-12T09:24:59.390Z,98678.22
2022-12-12T09:26:07.984Z,98675.56
2022-12-12T09:27:09.886Z,98678.72
2022-12-12T09:28:13.279Z,98671.47
2022-12-12T09:29:15.169Z,98672.70
2022-12-12T09:30:18.911Z,98677.47
2022-12-12T09:31:22.390Z,98683.23
2022-12-12T09:32:30.294Z,98683.99
2022-12-12T09:33:34.035Z,98684.55
2022-12-12T09:34:38.041Z,98696.06
2022-12-12T09:35:40.206Z,98693.03
2022-12-12T09:36:42.190Z,98698.97
2022-12-12T09:37:44.089Z,98696.42
2022-12-12T09:38:45.973Z,98704.28
2022-12-12T09:39:53.763Z,98705.17
2022-12-12T09:41:05.687Z,98704.63
2022-12-12T09:42:23.290Z,98709.73
2022-12-12T09:43:35.130Z,98713.19
2022-12-12T09:44:38.077Z,98711.22
2022-12-12T09:45:40.113Z,98714.68
2022-12-12T09:46:48.855Z,98718.97
2022-12-12T09:47:54.624Z,98728.17
2022-12-12T09:50:28.369Z,98731.67
2022-12-12T09:51:32.002Z,98740.30
2022-12-12T09:52:37.242Z,98744.03
2022-12-12T09:53:43.771Z,98747.76
2022-12-12T09:54:46.073Z,98745.06
2022-12-12T09:56:12.592Z,98732.94
2022-12-12T09:57:21.316Z,98746.34
2022-12-12T09:58:48.299Z,98738.97
2022-12-12T09:59:57.533Z,98734.91
2022-12-12T10:01:31.713Z,98749.23
2022-12-12T10:02:45.906Z,98745.20
2022-12-12T10:03:57.385Z,98748.30
2022-12-12T10:05:06.611Z,98759.59
2022-12-12T10:06:36.438Z,98762.83
2022-12-12T10:07:57.418Z,98760.33
2022-12-12T10:09:29.118Z,98765.47
2022-12-12T10:10:35.130Z,98764.88
2022-12-12T10:11:40.800Z,98758.70
2022-12-12T10:12:45.805Z,98768.13
2022-12-12T10:13:48.034Z,98771.60
2022-12-12T10:14:53.663Z,98760.70
2022-12-12T10:16:11.497Z,98766.28
2022-12-12T10:17:26.632Z,98763.25
2022-12-12T10:18:32.338Z,98758.58
2022-12-12T10:19:38.014Z,98777.19
2022-12-12T10:20:49.688Z,98768.46
2022-12-12T10:21:54.314Z,98771.11
2022-12-12T10:23:18.031Z,98776.86
2022-12-12T10:24:40.630Z,98778.12
2022-12-12T10:25:55.663Z,98782.31
2022-12-12T10:27:00.309Z,98774.55
2022-12-12T10:28:17.419Z,98777.70
2022-12-12T10:29:22.355Z,98784.07
2022-12-12T10:30:24.476Z,98782.95
2022-12-12T10:31:58.992Z,98791.09
2022-12-12T10:33:10.810Z,98781.86
2022-12-12T10:34:33.195Z,98779.27
2022-12-12T13:54:38.601Z,98956.67
2022-12-12T13:55:40.710Z,98960.46
2022-12-12T13:57:13.096Z,98956.34
2022-12-12T13:58:21.844Z,98962.22
2022-12-12T13:59:27.669Z,98966.14
2022-12-12T14:00:35.824Z,98974.11
2022-12-12T14:01:38.635Z,98972.40
2022-12-12T14:02:44.390Z,98969.47
2022-12-12T14:03:46.824Z,98971.00
2022-12-12T14:04:56.410Z,98966.80
2022-12-12T14:06:10.474Z,98973.09
2022-12-12T14:07:19.142Z,98969.31
2022-12-12T14:08:27.835Z,98965.73
2022-12-12T14:09:50.642Z,98970.70
2022-12-12T14:10:53.190Z,98974.25
2022-12-12T14:12:04.571Z,98968.55
2022-12-12T14:13:25.716Z,98964.97
2022-12-12T14:14:30.950Z,98969.05
2022-12-12T14:15:35.337Z,98971.42
2022-12-12T14:16:37.973Z,98972.06
2022-12-12T14:18:18.888Z,98976.26
2022-12-12T14:19:27.529Z,98967.59
2022-12-12T14:20:33.544Z,98973.46
2022-12-12T14:21:39.144Z,98978.55
2022-12-12T14:22:48.012Z,98976.78
2022-12-12T14:23:53.147Z,98978.94
2022-12-12T14:25:17.586Z,98985.89
2022-12-12T14:26:29.356Z,98979.45
2022-12-12T14:27:53.721Z,98987.57
2022-12-12T14:29:19.354Z,98977.56
2022-12-12T14:31:38.405Z,98981.22
2022-12-12T14:33:15.205Z,98976.14
2022-12-12T14:34:38.043Z,98979.45
2022-12-12T14:35:43.934Z,98973.70
2022-12-12T14:36:59.126Z,98978.81
2022-12-12T14:38:32.571Z,98966.63
2022-12-12T14:39:55.048Z,98970.59
2022-12-12T14:41:03.795Z,98970.70
2022-12-12T14:42:08.982Z,98965.00
2022-12-12T14:43:24.170Z,98972.06
2022-12-12T14:44:36.121Z,98966.67
2022-12-12T14:45:38.722Z,98972.30
2022-12-12T14:46:41.447Z,98973.10
2022-12-12T14:47:43.539Z,98979.09
2022-12-12T14:48:45.526Z,98972.09
2022-12-12T14:49:47.397Z,98971.05
2022-12-12T14:51:02.663Z,98972.05
2022-12-12T14:52:05.647Z,98976.42
2022-12-12T14:53:17.439Z,98980.69
2022-12-12T14:54:22.517Z,98976.17
2022-12-12T14:55:25.366Z,98972.60
2022-12-12T14:56:47.660Z,98976.84
2022-12-12T14:57:51.040Z,98976.34
2022-12-12T14:58:59.667Z,98978.64
2022-12-12T15:00:04.047Z,98974.40
2022-12-12T15:01:06.488Z,98969.09
2022-12-12T15:02:24.364Z,98972.56
2022-12-12T15:04:40.478Z,98963.77
2022-12-12T15:05:42.461Z,98960.58
2022-12-12T15:06:50.291Z,98969.96
2022-12-12T15:07:58.396Z,98969.58
2022-12-12T15:09:25.443Z,98976.30
2022-12-12T15:10:30.587Z,98977.88
2022-12-12T15:11:33.251Z,98980.86
2022-12-12T15:12:37.121Z,98973.61
2022-12-12T15:13:53.767Z,98977.72
2022-12-12T15:14:59.059Z,98983.92
2022-12-12T15:16:02.004Z,98988.14
2022-12-12T15:17:07.366Z,98990.81
2022-12-12T15:18:10.833Z,98995.00
2022-12-12T15:19:19.233Z,98992.29
2022-12-12T15:20:24.766Z,98998.92
2022-12-12T15:21:28.819Z,99003.41
2022-12-12T15:22:37.940Z,98997.00
2022-12-12T15:23:41.302Z,99001.89
2022-12-12T15:24:44.864Z,99000.97
2022-12-12T15:25:50.555Z,99005.44
2022-12-12T15:26:56.254Z,99000.97
2022-12-12T15:27:58.836Z,98996.92
2022-12-12T15:29:01.025Z,99007.96
2022-12-12T15:30:23.164Z,99007.96
2022-12-12T15:31:26.862Z,99009.48
2022-12-12T15:32:30.020Z,99011.12
2022-12-12T15:33:35.991Z,99019.03
2022-12-12T15:34:41.528Z,99016.36
2022-12-12T15:36:02.574Z,99017.03
2022-12-12T15:38:21.348Z,99012.16
2022-12-12T15:39:23.309Z,99012.75
2022-12-12T15:40:29.236Z,99013.23
2022-12-12T15:41:32.179Z,99009.87
2022-12-12T15:42:35.372Z,99025.31
2022-12-12T15:43:39.312Z,99019.03
2022-12-12T15:44:47.729Z,99015.47
2022-12-12T15:45:56.173Z,99018.80
2022-12-12T15:46:58.774Z,99026.47
2022-12-12T15:48:02.024Z,99027.91
2022-12-12T15:49:04.008Z,99026.11
2022-12-12T15:50:18.994Z,99031.52
2022-12-12T15:51:25.481Z,99027.98
2022-12-12T15:52:30.032Z,99031.63
2022-12-12T15:53:35.801Z,99033.43
2022-12-12T15:54:41.576Z,99031.39
2022-12-12T15:55:50.125Z,99037.38
2022-12-12T15:56:52.404Z,99045.22
2022-12-12T15:57:54.871Z,99041.34
2022-12-12T15:59:10.046Z,99044.09
2022-12-12T16:00:33.022Z,99046.73
2022-12-12T16:01:36.671Z,99049.90
2022-12-12T16:02:38.788Z,99047.98
2022-12-12T16:04:05.684Z,99047.70
2022-12-12T16:05:20.434Z,99051.06
2022-12-12T16:06:26.181Z,99058.94
2022-12-12T16:07:30.410Z,99050.14
2022-12-12T16:08:47.243Z,99056.98
2022-12-12T16:10:06.165Z,99054.34
2022-12-12T16:11:34.779Z,99058.50
2022-12-12T16:12:57.228Z,99057.53
2022-12-12T16:13:59.648Z,99059.69
2022-12-12T16:15:19.536Z,99064.09
2022-12-12T16:16:47.309Z,99066.66
2022-12-12T16:18:01.441Z,99065.45
2022-12-12T16:19:05.086Z,99067.78
2022-12-12T16:20:13.355Z,99072.02
2022-12-12T16:21:15.779Z,99071.90
2022-12-12T16:22:36.561Z,99075.22
2022-12-12T16:23:41.496Z,99070.78
2022-12-12T16:24:46.804Z,99067.38
2022-12-12T16:25:49.492Z,99072.50
2022-12-12T16:26:57.057Z,99074.89
2022-12-12T16:28:08.577Z,99074.02
2022-12-12T16:29:10.700Z,99076.58
2022-12-12T16:30:14.918Z,99077.36
2022-12-12T16:31:19.729Z,99079.05
2022-12-12T16:32:22.667Z,99072.74
2022-12-12T16:33:31.348Z,99081.09
2022-12-12T16:34:33.275Z,99077.90
2022-12-12T16:35:35.371Z,99073.34
2022-12-12T16:36:41.863Z,99072.70
2022-12-12T16:37:42.195Z,99074.09
2022-12-12T16:38:44.262Z,99076.66
2022-12-12T16:39:46.365Z,99078.02
2022-12-12T16:40:50.802Z,99072.53
2022-12-12T16:41:52.719Z,99078.14